createdAt,value
2022-11-22T00:02:48.467Z,88.06
2022-11-22T00:06:15.761Z,88.25
2022-11-22T00:09:42.497Z,88.27
2022-11-22T00:13:09.544Z,88.19
2022-11-22T00:16:36.217Z,88.35
2022-11-22T00:20:03.160Z,88.04
2022-11-22T00:23:29.776Z,88.11
2022-11-22T00:26:56.425Z,87.98
2022-11-22T00:30:23.945Z,88.02
2022-11-22T00:33:51.074Z,87.62
2022-11-22T00:37:17.791Z,87.88
2022-11-22T00:40:45.958Z,87.71
2022-11-22T00:44:12.761Z,87.83
2022-11-22T00:47:39.625Z,87.71
2022-11-22T00:51:06.602Z,87.72
2022-11-22T00:54:33.417Z,87.65
2022-11-22T00:58:00.360Z,87.83
2022-11-22T01:01:27.429Z,87.82
2022-11-22T01:04:54.717Z,87.91
2022-11-22T01:08:21.676Z,87.68
2022-11-22T01:11:49.559Z,87.52
2022-11-22T01:15:16.732Z,87.66
2022-11-22T01:18:43.733Z,87.72
2022-11-22T01:22:10.421Z,87.81
2022-11-22T01:25:37.297Z,87.72
2022-11-22T01:29:05.297Z,87.59
2022-11-22T01:32:31.988Z,87.68
2022-11-22T01:35:59.359Z,87.82
2022-11-22T01:39:27.052Z,87.74
2022-11-22T01:42:56.964Z,87.85
2022-11-22T01:46:33.927Z,87.89
2022-11-22T01:50:05.794Z,87.82
2022-11-22T01:53:35.944Z,87.81
2022-11-22T01:57:06.158Z,87.85
2022-11-22T02:00:32.994Z,87.60
2022-11-22T02:04:02.098Z,87.51
2022-11-22T02:07:34.969Z,87.54
2022-11-22T02:11:03.560Z,87.44
2022-11-22T02:14:32.231Z,87.35
2022-11-22T02:18:00.570Z,87.44
2022-11-22T02:21:27.489Z,87.37
2022-11-22T02:24:58.121Z,87.45
2022-11-22T02:28:26.257Z,87.37
2022-11-22T02:31:52.904Z,87.49
2022-11-22T02:35:24.482Z,87.51
2022-11-22T02:38:51.777Z,87.49
2022-11-22T02:42:18.813Z,87.40
2022-11-22T02:45:45.402Z,87.27
2022-11-22T02:49:12.231Z,87.18
2022-11-22T02:52:39.389Z,87.12
2022-11-22T02:56:06.794Z,87.13
2022-11-22T02:59:33.726Z,87.12
2022-11-22T03:03:00.437Z,86.96
2022-11-22T03:06:28.202Z,86.82
2022-11-22T03:09:54.990Z,86.97
2022-11-22T03:13:22.039Z,87.03
2022-11-22T03:16:50.826Z,86.78
2022-11-22T03:20:17.679Z,86.80
2022-11-22T03:23:44.680Z,86.70
2022-11-22T03:27:11.825Z,86.65
2022-11-22T03:30:42.396Z,86.84
2022-11-22T03:34:09.670Z,86.92
2022-11-22T03:37:36.970Z,86.88
2022-11-22T03:41:04.303Z,86.98
2022-11-22T03:44:31.138Z,86.95
2022-11-22T03:47:58.583Z,86.94
2022-11-22T03:51:25.362Z,86.96
2022-11-22T03:54:52.509Z,87.00
2022-11-22T03:58:19.340Z,86.94
2022-11-22T04:01:46.539Z,86.97
2022-11-22T04:05:13.986Z,86.86
2022-11-22T04:08:40.767Z,86.91
2022-11-22T04:12:08.681Z,86.84
2022-11-22T04:15:35.972Z,86.80
2022-11-22T04:19:03.326Z,86.75
2022-11-22T04:22:30.254Z,86.73
2022-11-22T04:25:57.904Z,86.80
2022-11-22T04:29:25.171Z,86.89
2022-11-22T04:32:54.979Z,86.93
2022-11-22T04:36:21.579Z,86.84
2022-11-22T04:39:48.426Z,86.89
2022-11-22T04:43:38.881Z,86.95
2022-11-22T04:47:05.609Z,86.84
2022-11-22T04:50:51.385Z,86.83
2022-11-22T04:54:18.223Z,87.00
2022-11-22T04:57:44.801Z,86.88
2022-11-22T05:01:12.105Z,86.75
2022-11-22T05:04:39.352Z,86.84
2022-11-22T05:08:07.795Z,86.96
2022-11-22T05:11:35.501Z,86.93
2022-11-22T05:15:02.375Z,87.10
2022-11-22T05:18:29.666Z,87.12
2022-11-22T05:21:56.701Z,87.00
2022-11-22T05:25:25.700Z,86.89
2022-11-22T05:28:53.709Z,86.68
2022-11-22T05:32:20.679Z,86.79
2022-11-22T05:35:47.536Z,86.70
2022-11-22T05:39:14.546Z,86.79
2022-11-22T05:42:41.278Z,86.99
2022-11-22T05:46:13.590Z,86.87
2022-11-22T05:49:40.777Z,86.89
2022-11-22T05:53:07.556Z,87.01
2022-11-22T05:56:34.597Z,86.98
2022-11-22T06:00:01.297Z,87.11
2022-11-22T06:03:28.131Z,87.21
2022-11-22T06:06:55.235Z,87.12
2022-11-22T06:10:22.075Z,87.17
2022-11-22T06:13:51.336Z,87.32
2022-11-22T06:17:18.393Z,87.22
2022-11-22T06:20:45.394Z,87.24
2022-11-22T06:24:13.123Z,87.30
2022-11-22T06:27:39.779Z,87.23
2022-11-22T06:31:09.017Z,87.31
2022-11-22T06:34:35.678Z,87.41
2022-11-22T06:38:02.572Z,87.25
2022-11-22T06:41:33.251Z,87.38
2022-11-22T06:45:00.052Z,87.24
2022-11-22T06:48:27.177Z,87.06
2022-11-22T06:51:54.048Z,86.94
2022-11-22T06:55:48.382Z,87.18
2022-11-22T06:59:09.199Z,87.05
2022-11-22T07:02:35.884Z,87.16
2022-11-22T07:06:02.599Z,87.10
2022-11-22T07:09:29.904Z,87.24
2022-11-22T07:12:56.829Z,87.24
2022-11-22T07:16:24.551Z,87.17
2022-11-22T07:19:51.269Z,87.36
2022-11-22T07:23:17.930Z,87.34
2022-11-22T07:26:44.899Z,87.43
2022-11-22T07:30:14.112Z,87.50
2022-11-22T07:33:41.046Z,87.63
2022-11-22T07:37:09.205Z,87.56
2022-11-22T07:40:36.473Z,87.53
2022-11-22T07:44:03.435Z,87.78
2022-11-22T07:47:30.082Z,87.56
2022-11-22T07:50:56.863Z,87.51
2022-11-22T07:54:23.839Z,87.61
2022-11-22T07:57:50.554Z,87.67
2022-11-22T08:01:19.258Z,87.60
2022-11-22T08:04:46.429Z,87.72
2022-11-22T08:08:13.056Z,87.75
2022-11-22T08:11:39.848Z,88.02
2022-11-22T08:15:08.558Z,88.02
2022-11-22T08:18:36.056Z,87.98
2022-11-22T08:22:03.206Z,88.05
2022-11-22T08:25:29.953Z,88.17
2022-11-22T08:28:57.068Z,88.22
2022-11-22T08:32:23.967Z,88.11
2022-11-22T08:35:53.416Z,88.31
2022-11-22T08:39:20.148Z,88.38
2022-11-22T08:42:46.966Z,88.50
2022-11-22T08:46:13.980Z,88.40
2022-11-22T08:49:40.734Z,88.52
2022-11-22T08:53:07.494Z,88.87
2022-11-22T08:56:34.166Z,88.78
2022-11-22T09:00:01.036Z,88.78
2022-11-22T09:03:28.051Z,88.89
2022-11-22T09:10:41.812Z,88.90
2022-11-22T09:14:08.915Z,88.99
2022-11-22T09:17:36.021Z,88.98
2022-11-22T09:21:04.198Z,88.96
2022-11-22T09:24:30.898Z,89.12
2022-11-22T09:28:00.267Z,89.21
2022-11-22T09:31:27.193Z,89.28
2022-11-22T09:34:53.861Z,89.60
2022-11-22T09:38:21.563Z,89.57
2022-11-22T09:42:12.460Z,89.73
2022-11-22T09:45:54.719Z,89.68
2022-11-22T09:49:30.401Z,89.84
2022-11-22T09:53:04.384Z,89.86
2022-11-22T09:56:34.008Z,89.81
2022-11-22T10:00:06.514Z,89.91
2022-11-22T10:03:47.098Z,89.82
2022-11-22T10:07:19.866Z,89.98
2022-11-22T10:10:46.875Z,89.87
2022-11-22T10:14:23.766Z,89.98
2022-11-22T10:17:55.773Z,89.82
2022-11-22T10:21:22.615Z,89.87
2022-11-22T10:24:49.814Z,89.91
2022-11-22T10:28:20.264Z,90.22
2022-11-22T10:31:55.864Z,89.97
2022-11-22T10:35:44.475Z,90.37
2022-11-22T10:39:24.786Z,90.51
2022-11-22T10:43:29.902Z,90.57
2022-11-22T10:47:06.379Z,90.83
2022-11-22T10:50:43.864Z,90.86
2022-11-22T10:54:21.079Z,91.05
2022-11-22T10:57:55.978Z,91.14
2022-11-22T11:01:30.255Z,91.22
2022-11-22T11:04:58.536Z,91.22
2022-11-22T11:08:48.050Z,91.54
2022-11-22T11:12:25.171Z,91.53
2022-11-22T11:15:56.408Z,91.60
2022-11-22T11:19:26.747Z,91.60
2022-11-22T11:26:41.329Z,91.88
2022-11-22T11:30:14.919Z,91.92
2022-11-22T11:33:43.380Z,91.96
2022-11-22T11:37:20.234Z,92.22
2022-11-22T11:40:47.884Z,92.10
2022-11-22T11:44:32.169Z,92.29
2022-11-22T11:47:59.387Z,92.20
2022-11-22T11:51:37.369Z,91.97
2022-11-22T11:55:06.192Z,92.12
2022-11-22T11:58:34.717Z,92.11
2022-11-22T12:02:06.120Z,92.12
2022-11-22T12:05:34.378Z,92.02
2022-11-22T12:09:02.938Z,92.09
2022-11-22T12:12:48.031Z,92.14
2022-11-22T12:16:22.995Z,91.99
2022-11-22T12:19:56.980Z,92.06
2022-11-22T12:23:32.470Z,91.93
2022-11-22T12:26:59.401Z,92.23
2022-11-22T12:30:26.977Z,92.30
2022-11-22T12:33:57.251Z,92.18
2022-11-22T12:37:27.970Z,92.13
2022-11-22T12:40:58.242Z,92.42
2022-11-22T12:44:26.116Z,92.40
2022-11-22T12:47:54.060Z,92.39
2022-11-22T12:51:27.772Z,92.56
2022-11-22T12:55:02.032Z,92.60
2022-11-22T12:58:37.459Z,92.34
2022-11-22T13:02:25.567Z,92.73
2022-11-22T13:05:55.418Z,92.30
2022-11-22T13:09:25.741Z,92.36
2022-11-22T13:12:54.475Z,92.58
2022-11-22T13:16:21.617Z,92.51
2022-11-22T13:19:53.686Z,92.39
2022-11-22T13:23:41.044Z,92.39
2022-11-22T13:27:17.411Z,92.55
2022-11-22T13:31:13.924Z,92.54
2022-11-22T13:34:43.358Z,92.63
2022-11-22T13:38:16.132Z,92.72
2022-11-22T13:41:52.381Z,92.57
2022-11-22T13:45:26.683Z,92.48
2022-11-22T13:49:16.809Z,92.52
2022-11-22T13:52:56.549Z,92.34
2022-11-22T13:56:59.571Z,92.52
2022-11-22T14:00:49.483Z,92.40
2022-11-22T14:04:38.450Z,92.37
2022-11-22T14:08:07.225Z,92.52
2022-11-22T14:11:46.770Z,92.79
2022-11-22T14:15:24.264Z,92.56
2022-11-22T14:18:57.254Z,92.70
2022-11-22T14:22:33.906Z,92.48
2022-11-22T14:26:14.319Z,92.57
2022-11-22T14:30:05.718Z,92.60
2022-11-22T14:33:33.253Z,92.81
2022-11-22T14:37:36.960Z,92.98
2022-11-22T14:41:47.290Z,92.78
2022-11-22T14:45:23.461Z,93.17
2022-11-22T14:48:57.846Z,93.06
2022-11-22T14:52:27.365Z,93.55
2022-11-22T14:55:57.417Z,93.64
2022-11-22T14:59:52.296Z,93.37
2022-11-22T15:03:32.842Z,93.66
2022-11-22T15:09:13.160Z,94.09
2022-11-22T15:11:28.604Z,93.95
2022-11-22T15:57:29.473Z,94.00
2022-11-22T16:01:19.800Z,93.99
2022-11-22T16:06:04.680Z,93.86
2022-11-22T16:08:39.783Z,93.77
2022-11-22T16:12:24.497Z,94.00
2022-11-22T16:16:07.554Z,93.95
2022-11-22T16:19:34.297Z,93.75
2022-11-22T16:23:27.621Z,94.17
2022-11-22T16:26:58.140Z,93.83
2022-11-22T16:30:25.545Z,94.05
2022-11-22T16:33:53.469Z,94.03
2022-11-22T16:37:33.164Z,94.09
2022-11-22T16:41:03.834Z,93.95
2022-11-22T16:44:31.080Z,93.93
2022-11-22T16:48:24.127Z,93.94
2022-11-22T16:51:45.535Z,93.98
2022-11-22T16:55:17.076Z,93.86
2022-11-22T16:58:43.833Z,93.94
2022-11-22T17:02:14.435Z,93.68
2022-11-22T17:05:41.938Z,93.89
2022-11-22T17:09:09.919Z,93.80
2022-11-22T17:12:36.925Z,93.81
2022-11-22T17:16:03.889Z,93.58
2022-11-22T17:19:52.017Z,93.51
2022-11-22T17:23:22.657Z,93.61
2022-11-22T17:26:50.139Z,93.90
2022-11-22T17:30:18.749Z,93.73
2022-11-22T17:33:45.498Z,93.82
2022-11-22T17:37:14.554Z,94.00
2022-11-22T17:40:41.273Z,93.73
2022-11-22T17:44:08.807Z,93.71
2022-11-22T17:47:36.033Z,93.64
2022-11-22T17:51:07.821Z,93.81
2022-11-22T17:54:34.564Z,93.90
2022-11-22T17:58:02.252Z,94.03
2022-11-22T18:01:28.999Z,94.28
2022-11-22T18:04:57.767Z,94.20
2022-11-22T18:08:24.679Z,94.09
2022-11-22T18:11:51.435Z,94.10
2022-11-22T18:15:18.843Z,94.02
2022-11-22T18:19:01.248Z,94.18
2022-11-22T18:22:28.525Z,94.16
2022-11-22T18:26:23.743Z,93.98
2022-11-22T18:29:46.934Z,93.88
2022-11-22T18:33:14.870Z,94.15
2022-11-22T18:37:02.136Z,94.29
2022-11-22T18:40:29.344Z,94.16
2022-11-22T18:43:56.818Z,94.18
2022-11-22T18:47:24.023Z,94.39
2022-11-22T19:00:41.954Z,94.10
2022-11-22T19:04:09.383Z,94.07
2022-11-22T19:07:36.604Z,94.03
2022-11-22T19:11:03.906Z,94.06
2022-11-22T19:14:31.086Z,94.30
2022-11-22T19:17:58.025Z,94.26
2022-11-22T19:21:27.891Z,94.18
2022-11-22T19:24:55.346Z,94.33
2022-11-22T19:28:26.804Z,94.14
2022-11-22T19:31:53.645Z,94.10
2022-11-22T19:35:20.822Z,94.35
2022-11-22T19:38:48.791Z,93.92
2022-11-22T19:42:16.678Z,93.92
2022-11-22T19:45:43.509Z,93.88
2022-11-22T19:49:11.411Z,94.35
2022-11-22T19:52:38.227Z,94.08
2022-11-22T19:56:13.641Z,94.06
2022-11-22T19:59:40.783Z,94.16
2022-11-22T20:03:07.788Z,94.23
2022-11-22T20:06:36.100Z,94.45
2022-11-22T20:10:04.295Z,93.89
2022-11-22T20:13:34.649Z,94.17
2022-11-22T20:17:01.848Z,94.06
2022-11-22T20:20:28.797Z,94.12
2022-11-22T20:23:56.817Z,94.12
2022-11-22T20:27:24.939Z,94.08
2022-11-22T20:30:52.217Z,94.09
2022-11-22T20:34:20.746Z,94.00
2022-11-22T20:37:51.423Z,94.05
2022-11-22T20:41:20.565Z,94.08
2022-11-22T20:44:47.356Z,94.21
2022-11-22T20:48:15.807Z,94.06
2022-11-22T20:51:43.473Z,94.05
2022-11-22T20:55:11.827Z,94.28
2022-11-22T20:58:38.697Z,94.30
2022-11-22T21:02:09.338Z,94.43
2022-11-22T21:05:36.550Z,94.08
2022-11-22T21:09:03.389Z,94.44
2022-11-22T21:12:30.756Z,94.35
2022-11-22T21:16:20.670Z,94.13
2022-11-22T21:19:49.796Z,94.44
2022-11-22T21:23:17.262Z,94.40
2022-11-22T21:26:44.412Z,94.42
2022-11-22T21:30:13.459Z,94.44
2022-11-22T21:33:40.408Z,94.29
2022-11-22T21:37:07.553Z,94.25
2022-11-22T21:40:34.609Z,94.68
2022-11-22T21:44:01.256Z,94.50
2022-11-22T21:47:28.292Z,94.85
2022-11-22T21:50:57.190Z,94.45
2022-11-22T21:54:24.071Z,94.57
2022-11-22T21:57:50.750Z,94.57
2022-11-22T22:01:17.571Z,94.79
2022-11-22T22:04:44.462Z,94.59
2022-11-22T22:08:11.742Z,94.72
2022-11-22T22:11:41.800Z,94.72
2022-11-22T22:15:11.760Z,94.70
2022-11-22T22:18:39.817Z,94.85
2022-11-22T22:22:06.753Z,94.73
2022-11-22T22:25:33.825Z,94.68
2022-11-22T22:29:00.756Z,94.76
2022-11-22T22:32:27.883Z,94.81
2022-11-22T22:35:54.543Z,94.75
2022-11-22T22:39:21.257Z,94.74
2022-11-22T22:42:48.305Z,94.80
2022-11-22T22:46:17.217Z,94.67
2022-11-22T22:49:44.348Z,94.85
2022-11-22T22:53:11.174Z,94.85
2022-11-22T22:56:37.869Z,95.12
2022-11-22T23:00:05.430Z,95.03
2022-11-22T23:03:32.696Z,95.05
2022-11-22T23:06:59.493Z,95.15
2022-11-22T23:10:27.865Z,94.92
2022-11-22T23:13:54.735Z,95.02
2022-11-22T23:17:21.674Z,94.95
2022-11-22T23:20:48.960Z,94.82
2022-11-22T23:24:15.791Z,95.06
2022-11-22T23:27:42.443Z,94.93
2022-11-22T23:31:11.696Z,94.87
2022-11-22T23:34:38.400Z,94.76
2022-11-22T23:38:05.228Z,94.74
2022-11-22T23:41:32.076Z,94.72
2022-11-22T23:44:58.734Z,94.77
2022-11-22T23:48:25.682Z,94.73
2022-11-22T23:51:52.412Z,94.73
2022-11-22T23:55:19.234Z,94.68
2022-11-22T23:58:45.968Z,94.79
